Terminal Aerodrome Forecast
Issued by NWS Newport/Morehead City, NC

Home | Current Version | Previous Version | Graphics & Text | Print | Product List | Glossary On
Versions: 1 2 3 4 5 6 7 8 9 10 11 12 13 14
000
FTUS42 KMHX 241120
TAFEWN
TAF
KEWN 241120Z 2412/2512 11016G24KT 2SM +RA VCTS BKN009CB
      TEMPO 2416/2418 BKN012CB
     FM241800 13014G27KT 6SM -RA VCTS OVC012CB
     FM250000 15010KT P6SM BKN250=

USA.gov is the U.S. government's official web portal to all federal, state and local government web resources and services.